createdAt,value
2022-12-18T00:01:17.105Z,30.63
2022-12-18T00:03:45.282Z,25.45
2022-12-18T00:06:15.598Z,27.98
2022-12-18T00:08:43.503Z,23.85
2022-12-18T00:11:13.580Z,23.13
2022-12-18T00:13:41.719Z,33.92
2022-12-18T00:16:12.613Z,25.77
2022-12-18T00:18:40.752Z,15.05
2022-12-18T00:21:09.987Z,25.63
2022-12-18T00:23:38.730Z,23.50
2022-12-18T00:26:16.169Z,12.10
2022-12-18T00:28:44.581Z,19.55
2022-12-18T00:31:14.846Z,11.32
2022-12-18T00:33:42.409Z,24.88
2022-12-18T00:36:13.239Z,22.45
2022-12-18T00:38:40.861Z,10.15
2022-12-18T00:41:10.688Z,21.92
2022-12-18T00:43:39.378Z,20.55
2022-12-18T00:46:07.351Z,20.95
2022-12-18T00:48:34.455Z,23.08
2022-12-18T00:51:01.526Z,15.63
2022-12-18T00:53:28.584Z,18.88
2022-12-18T00:55:56.667Z,22.75
2022-12-18T00:58:23.596Z,9.77
2022-12-18T01:00:50.673Z,19.38
2022-12-18T01:03:17.785Z,13.90
2022-12-18T01:05:44.875Z,19.45
2022-12-18T01:08:12.192Z,24.88
2022-12-18T01:10:42.576Z,22.75
2022-12-18T01:13:09.724Z,10.75
2022-12-18T01:15:37.020Z,20.65
2022-12-18T01:18:07.936Z,20.63
2022-12-18T01:20:34.929Z,22.08
2022-12-18T01:23:01.876Z,21.45
2022-12-18T01:25:28.916Z,21.88
2022-12-18T01:27:55.875Z,19.38
2022-12-18T01:30:22.901Z,14.63
2022-12-18T01:32:49.982Z,21.30
2022-12-18T01:35:17.798Z,19.80
2022-12-18T01:37:44.787Z,22.02
2022-12-18T01:40:12.090Z,11.18
2022-12-18T01:42:39.943Z,21.45
2022-12-18T01:45:13.370Z,19.30
2022-12-18T01:47:44.605Z,19.75
2022-12-18T01:50:16.362Z,19.38
2022-12-18T01:55:13.537Z,16.30
2022-12-18T01:57:41.471Z,19.15
2022-12-18T02:00:12.962Z,19.20
2022-12-18T02:02:42.342Z,21.15
2022-12-18T02:05:11.512Z,24.87
2022-12-18T02:07:44.310Z,8.80
2022-12-18T02:10:16.995Z,11.52
2022-12-18T02:12:49.589Z,12.73
2022-12-18T02:15:27.862Z,13.75
2022-12-18T02:18:11.687Z,16.45
2022-12-18T02:21:01.821Z,9.68
2022-12-18T02:24:04.461Z,18.33
2022-12-18T02:26:40.258Z,10.90
2022-12-18T02:29:14.054Z,10.80
2022-12-18T02:31:56.398Z,16.15
2022-12-18T02:34:31.747Z,15.85
2022-12-18T02:37:02.254Z,14.05
2022-12-18T02:39:31.526Z,15.05
2022-12-18T02:42:08.840Z,17.85
2022-12-18T02:44:42.799Z,16.35
2022-12-18T02:47:13.070Z,14.57
2022-12-18T02:50:00.490Z,13.00
2022-12-18T02:53:11.576Z,15.68
2022-12-18T02:56:02.967Z,16.75
2022-12-18T02:58:29.941Z,15.80
2022-12-18T03:01:25.923Z,17.95
2022-12-18T03:03:58.947Z,16.58
2022-12-18T03:06:31.713Z,16.67
2022-12-18T03:09:18.853Z,16.55
2022-12-18T03:12:13.049Z,18.48
2022-12-18T03:14:43.048Z,14.38
2022-12-18T03:17:14.816Z,14.10
2022-12-18T03:19:44.284Z,12.40
2022-12-18T03:22:11.709Z,17.70
2022-12-18T03:24:48.782Z,11.20
2022-12-18T03:27:19.703Z,11.75
2022-12-18T03:29:54.708Z,17.60
2022-12-18T03:32:32.464Z,15.27
2022-12-18T03:35:04.312Z,15.98
2022-12-18T03:37:34.962Z,14.30
2022-12-18T03:40:02.358Z,17.27
2022-12-18T03:42:47.168Z,15.68
2022-12-18T03:45:35.812Z,16.80
2022-12-18T03:48:29.564Z,14.30
2022-12-18T03:51:07.052Z,18.40
2022-12-18T03:53:47.595Z,10.75
2022-12-18T03:56:17.881Z,16.20
2022-12-18T03:58:46.874Z,9.93
2022-12-18T04:01:25.298Z,13.60
2022-12-18T04:03:56.033Z,16.67
2022-12-18T04:06:23.791Z,15.43
2022-12-18T04:08:53.178Z,12.30
2022-12-18T04:11:22.998Z,14.40
2022-12-18T04:13:50.009Z,15.20
2022-12-18T04:16:23.073Z,13.35
2022-12-18T04:18:53.822Z,15.07
2022-12-18T04:21:22.061Z,16.75
2022-12-18T04:23:50.283Z,14.32
2022-12-18T04:26:20.337Z,10.68
2022-12-18T04:28:57.905Z,14.60
2022-12-18T04:31:25.312Z,12.35
2022-12-18T04:33:52.934Z,11.95
2022-12-18T04:36:20.468Z,14.05
2022-12-18T04:38:47.884Z,13.40
2022-12-18T04:41:17.146Z,12.93
2022-12-18T04:43:47.232Z,13.65
2022-12-18T04:46:14.428Z,13.98
2022-12-18T04:48:41.752Z,15.52
2022-12-18T04:51:08.884Z,11.07
2022-12-18T04:53:36.023Z,13.60
2022-12-18T04:56:08.510Z,11.90
2022-12-18T04:58:36.803Z,14.77
2022-12-18T05:01:05.389Z,14.20
2022-12-18T05:03:33.045Z,14.27
2022-12-18T05:06:00.458Z,10.10
2022-12-18T05:08:27.959Z,11.77
2022-12-18T05:11:09.593Z,11.18
2022-12-18T05:13:39.411Z,8.82
2022-12-18T05:16:07.761Z,13.65
2022-12-18T05:18:35.649Z,10.35
2022-12-18T05:21:02.696Z,13.00
2022-12-18T05:23:29.744Z,12.88
2022-12-18T05:26:02.166Z,14.82
2022-12-18T05:28:31.919Z,10.85
2022-12-18T05:31:01.600Z,8.88
2022-12-18T05:33:32.562Z,11.45
2022-12-18T05:36:05.332Z,12.15
2022-12-18T05:38:34.452Z,11.77
2022-12-18T05:41:01.679Z,15.40
2022-12-18T05:43:29.808Z,13.63
2022-12-18T05:45:57.922Z,14.20
2022-12-18T05:48:24.930Z,10.45
2022-12-18T05:50:52.268Z,12.15
2022-12-18T05:53:21.289Z,13.90
2022-12-18T05:55:48.903Z,34.38
2022-12-18T05:58:16.875Z,14.40
2022-12-18T06:00:47.491Z,13.70
2022-12-18T06:03:15.037Z,9.55
2022-12-18T06:05:44.753Z,18.58
2022-12-18T06:08:12.623Z,14.88
2022-12-18T06:10:40.035Z,16.27
2022-12-18T06:13:07.769Z,14.02
2022-12-18T06:15:38.370Z,9.73
2022-12-18T06:18:05.461Z,13.07
2022-12-18T06:20:33.937Z,15.52
2022-12-18T06:23:01.348Z,12.80
2022-12-18T06:25:28.807Z,11.15
2022-12-18T06:27:56.040Z,13.77
2022-12-18T06:30:23.289Z,14.18
2022-12-18T06:32:56.354Z,10.50
2022-12-18T06:35:24.379Z,14.40
2022-12-18T06:37:51.957Z,11.30
2022-12-18T06:40:19.667Z,17.20
2022-12-18T06:42:46.848Z,14.13
2022-12-18T06:45:13.825Z,6.07
2022-12-18T06:47:40.827Z,11.23
2022-12-18T06:50:08.206Z,12.88
2022-12-18T06:52:35.408Z,12.45
2022-12-18T06:55:02.395Z,12.32
2022-12-18T06:57:30.217Z,13.60
2022-12-18T06:59:57.256Z,9.30
2022-12-18T07:02:24.307Z,17.38
2022-12-18T07:04:51.482Z,11.38
2022-12-18T07:07:18.841Z,14.10
2022-12-18T07:09:45.872Z,13.57
2022-12-18T07:12:12.975Z,13.02
2022-12-18T07:14:39.960Z,13.02
2022-12-18T07:17:07.026Z,9.88
2022-12-18T07:19:34.404Z,15.50
2022-12-18T07:22:01.684Z,13.25
2022-12-18T07:24:29.525Z,14.65
2022-12-18T07:26:56.431Z,13.48
2022-12-18T07:29:23.450Z,14.23
2022-12-18T07:31:50.765Z,25.95
2022-12-18T07:34:18.407Z,9.10
2022-12-18T07:36:45.606Z,13.52
2022-12-18T07:39:13.066Z,11.80
2022-12-18T07:41:46.739Z,12.60
2022-12-18T07:44:16.526Z,10.60
2022-12-18T07:46:43.454Z,14.65
2022-12-18T07:49:10.510Z,12.07
2022-12-18T07:51:37.512Z,11.20
2022-12-18T07:54:04.592Z,13.48
2022-12-18T07:56:31.791Z,8.88
2022-12-18T07:59:00.368Z,12.23
2022-12-18T08:01:30.231Z,12.55
2022-12-18T08:03:58.794Z,10.65
2022-12-18T08:06:25.895Z,14.15
2022-12-18T08:08:54.735Z,12.80
2022-12-18T08:11:23.404Z,17.35
2022-12-18T08:13:50.344Z,12.25
2022-12-18T08:16:18.280Z,13.23
2022-12-18T08:18:45.400Z,12.45
2022-12-18T08:21:16.104Z,5.18
2022-12-18T08:23:43.861Z,12.38
2022-12-18T08:26:12.077Z,12.35
2022-12-18T08:28:39.752Z,11.43
2022-12-18T08:31:07.771Z,12.70
2022-12-18T08:33:36.135Z,12.93
2022-12-18T08:36:03.592Z,13.13
2022-12-18T08:38:30.633Z,11.27
2022-12-18T08:41:05.259Z,10.00
2022-12-18T08:43:50.610Z,14.32
2022-12-18T08:46:19.254Z,11.57
2022-12-18T08:48:46.845Z,8.38
2022-12-18T08:51:14.027Z,14.48
2022-12-18T08:53:41.438Z,11.02
2022-12-18T08:56:08.783Z,17.30
2022-12-18T08:58:35.866Z,12.30
2022-12-18T09:01:05.074Z,9.70
2022-12-18T09:03:32.731Z,12.52
2022-12-18T09:06:00.700Z,14.88
2022-12-18T09:08:28.379Z,11.88
2022-12-18T09:10:56.215Z,5.25
2022-12-18T09:13:23.804Z,14.23
2022-12-18T09:15:53.668Z,6.97
2022-12-18T09:18:22.398Z,9.02
2022-12-18T09:20:49.382Z,11.65
2022-12-18T09:23:16.366Z,11.73
2022-12-18T09:25:43.282Z,8.20
2022-12-18T09:28:15.659Z,11.35
2022-12-18T09:30:46.947Z,10.50
2022-12-18T09:33:14.824Z,11.90
2022-12-18T09:35:43.819Z,9.65
2022-12-18T09:38:16.571Z,11.57
2022-12-18T09:40:50.386Z,10.32
2022-12-18T09:43:42.315Z,11.38
2022-12-18T09:46:17.181Z,9.00
2022-12-18T09:48:49.133Z,9.48
2022-12-18T09:51:16.049Z,11.45
2022-12-18T09:53:48.620Z,8.82
2022-12-18T09:56:20.654Z,11.95
2022-12-18T09:59:00.186Z,9.75
2022-12-18T10:01:38.956Z,11.18
2022-12-18T10:04:11.024Z,12.15
2022-12-18T10:06:48.704Z,12.23
2022-12-18T10:09:15.635Z,10.77
2022-12-18T10:11:54.637Z,7.63
2022-12-18T10:14:35.343Z,8.77
2022-12-18T10:17:07.098Z,12.05
2022-12-18T10:19:54.071Z,10.68
2022-12-18T10:22:49.274Z,7.35
2022-12-18T10:25:24.718Z,7.65
2022-12-18T10:27:56.437Z,10.10
2022-12-18T10:30:24.926Z,8.95
2022-12-18T10:32:52.329Z,7.55
2022-12-18T10:35:25.415Z,9.65
2022-12-18T10:38:23.371Z,10.75
2022-12-18T10:40:53.391Z,12.65
2022-12-18T10:43:24.131Z,8.52
2022-12-18T10:46:02.512Z,9.07
2022-12-18T10:48:31.550Z,5.00
2022-12-18T10:51:10.778Z,8.23
2022-12-18T10:53:43.025Z,8.38
2022-12-18T10:56:10.574Z,7.75
2022-12-18T10:58:40.523Z,8.02
2022-12-18T11:01:14.076Z,10.85
2022-12-18T11:04:02.648Z,8.75
2022-12-18T11:06:30.462Z,6.30
2022-12-18T11:09:12.710Z,12.85
2022-12-18T11:11:40.379Z,8.38
2022-12-18T11:14:20.514Z,8.50
2022-12-18T11:17:23.840Z,7.40
2022-12-18T11:19:39.298Z,11.27
2022-12-18T11:22:27.651Z,10.97
2022-12-18T11:25:32.448Z,14.23
2022-12-18T11:28:01.765Z,10.43
2022-12-18T11:30:32.012Z,12.35
2022-12-18T11:33:15.969Z,10.43
2022-12-18T11:35:45.753Z,10.13
2022-12-18T11:38:38.012Z,7.85
2022-12-18T11:41:13.984Z,11.00
2022-12-18T11:43:56.579Z,8.90
2022-12-18T11:46:48.181Z,8.68
2022-12-18T11:49:21.102Z,11.52
2022-12-18T11:52:01.530Z,10.02
2022-12-18T11:54:28.764Z,4.30
2022-12-18T11:57:09.977Z,8.50
2022-12-18T12:00:05.739Z,9.52
2022-12-18T12:02:51.938Z,13.48
2022-12-18T12:05:24.919Z,9.18
2022-12-18T12:08:01.042Z,10.00
2022-12-18T12:11:02.997Z,7.00
2022-12-18T12:14:09.017Z,11.70
2022-12-18T12:17:00.181Z,5.95
2022-12-18T12:19:48.429Z,7.57
2022-12-18T12:22:30.306Z,7.30
2022-12-18T12:25:00.442Z,10.88
2022-12-18T12:27:30.282Z,5.50
2022-12-18T12:29:59.934Z,7.78
2022-12-18T12:32:46.202Z,9.98
2022-12-18T12:35:30.858Z,9.38
2022-12-18T12:38:16.576Z,8.52
2022-12-18T12:40:54.924Z,12.10
2022-12-18T12:43:28.139Z,9.35
2022-12-18T12:46:11.945Z,11.07
2022-12-18T12:48:50.282Z,10.05
2022-12-18T12:51:20.564Z,8.35
2022-12-18T12:53:47.994Z,7.43
2022-12-18T12:56:22.417Z,8.70
2022-12-18T12:58:55.540Z,10.65
2022-12-18T13:01:30.072Z,7.25
2022-12-18T13:04:23.792Z,11.93
2022-12-18T13:07:05.965Z,10.50
2022-12-18T13:09:36.811Z,9.20
2022-12-18T13:12:34.862Z,9.05
2022-12-18T13:15:24.473Z,11.15
2022-12-18T13:18:28.677Z,13.55
2022-12-18T13:20:59.946Z,9.43
2022-12-18T13:23:29.906Z,10.38
2022-12-18T13:26:11.925Z,9.15
2022-12-18T13:28:48.014Z,9.25
2022-12-18T13:31:43.403Z,10.25
2022-12-18T13:34:28.025Z,11.93
2022-12-18T13:36:57.349Z,9.05
2022-12-18T13:39:34.874Z,8.95
2022-12-18T13:42:05.878Z,11.05
2022-12-18T13:44:39.940Z,6.78
2022-12-18T13:47:32.233Z,8.27
2022-12-18T13:50:00.322Z,6.20
2022-12-18T13:52:30.023Z,12.73
2022-12-18T13:55:00.301Z,7.60
2022-12-18T13:57:29.939Z,6.68
2022-12-18T13:59:58.354Z,8.83
2022-12-18T14:02:29.073Z,8.65
2022-12-18T14:04:56.500Z,8.25
2022-12-18T14:07:26.563Z,8.95
2022-12-18T14:10:18.656Z,9.65
2022-12-18T14:13:02.003Z,10.50
2022-12-18T14:15:36.898Z,8.80
2022-12-18T14:18:24.039Z,16.17
2022-12-18T14:20:58.625Z,12.25
2022-12-18T14:23:31.565Z,13.02
2022-12-18T14:26:05.164Z,15.63
2022-12-18T14:28:33.167Z,12.00
2022-12-18T14:31:00.525Z,31.75
2022-12-18T14:33:28.830Z,20.63
2022-12-18T14:36:04.745Z,26.70
2022-12-18T14:38:33.243Z,24.75
2022-12-18T14:41:19.793Z,25.10
2022-12-18T14:43:49.635Z,21.30
2022-12-18T14:46:39.014Z,21.88
2022-12-18T14:49:31.504Z,23.33
2022-12-18T14:52:04.430Z,15.48
2022-12-18T14:54:33.344Z,14.13
2022-12-18T14:57:04.098Z,27.52
2022-12-18T14:59:32.491Z,19.85
2022-12-18T15:02:12.068Z,22.75
2022-12-18T15:04:44.204Z,19.33
2022-12-18T15:07:23.799Z,20.90
2022-12-18T15:10:09.147Z,19.77
2022-12-18T15:12:39.947Z,20.25
2022-12-18T15:15:39.379Z,14.63
2022-12-18T15:18:09.592Z,11.63
2022-12-18T15:23:37.601Z,16.70
2022-12-18T15:26:08.671Z,17.90
2022-12-18T15:28:44.580Z,14.02
2022-12-18T15:31:14.467Z,18.17
2022-12-18T15:33:54.097Z,16.75
2022-12-18T15:36:26.317Z,15.48
2022-12-18T15:39:02.167Z,21.38
2022-12-18T15:41:36.195Z,13.63
2022-12-18T15:44:04.902Z,11.63
2022-12-18T15:46:32.300Z,13.40
2022-12-18T15:49:02.668Z,11.32
2022-12-18T15:51:38.572Z,11.85
2022-12-18T15:54:11.204Z,10.70
2022-12-18T15:56:57.013Z,14.77
2022-12-18T15:59:24.919Z,10.00
2022-12-18T16:01:54.191Z,13.80
2022-12-18T16:04:22.569Z,11.68
2022-12-18T16:09:38.073Z,13.55
2022-12-18T16:12:06.561Z,9.05
2022-12-18T16:14:33.901Z,15.55
2022-12-18T16:17:09.998Z,11.20
2022-12-18T16:19:37.048Z,10.60
2022-12-18T16:22:04.146Z,11.63
2022-12-18T16:24:33.872Z,9.90
2022-12-18T16:27:01.831Z,11.43
2022-12-18T16:29:30.108Z,10.98
2022-12-18T16:32:01.711Z,12.43
2022-12-18T16:34:35.692Z,9.68
2022-12-18T16:37:06.947Z,10.90
2022-12-18T16:39:35.640Z,9.18
2022-12-18T16:42:13.645Z,9.68
2022-12-18T16:44:41.467Z,11.48
2022-12-18T16:47:08.774Z,9.18
2022-12-18T16:49:37.975Z,11.80
2022-12-18T16:52:09.559Z,11.18
2022-12-18T16:54:38.009Z,13.38
2022-12-18T16:57:05.650Z,11.23
2022-12-18T16:59:35.725Z,12.15
2022-12-18T17:02:03.478Z,15.90
2022-12-18T17:04:30.687Z,13.43
2022-12-18T17:06:57.696Z,14.88
2022-12-18T17:09:27.986Z,6.93
2022-12-18T17:11:55.326Z,12.82
2022-12-18T17:14:24.867Z,11.98
2022-12-18T17:17:19.111Z,8.18
2022-12-18T17:19:40.532Z,13.20
2022-12-18T17:22:09.026Z,14.23
2022-12-18T17:24:36.474Z,10.15
2022-12-18T17:27:04.648Z,11.65
2022-12-18T17:29:31.895Z,12.07
2022-12-18T17:32:00.445Z,8.52
2022-12-18T17:34:28.608Z,12.32
2022-12-18T17:36:57.043Z,12.17
2022-12-18T17:39:24.119Z,14.52
2022-12-18T17:41:51.161Z,13.30
2022-12-18T17:44:18.707Z,6.78
2022-12-18T17:46:46.470Z,12.10
2022-12-18T17:49:15.842Z,12.82
2022-12-18T17:51:43.317Z,10.57
2022-12-18T17:54:11.327Z,8.40
2022-12-18T17:56:38.797Z,12.13
2022-12-18T17:59:07.320Z,12.95
2022-12-18T18:01:37.329Z,12.20
2022-12-18T18:04:08.379Z,13.90
2022-12-18T18:06:39.030Z,14.60
2022-12-18T18:09:09.969Z,13.27
2022-12-18T18:12:01.709Z,16.15
2022-12-18T18:14:32.350Z,14.18
2022-12-18T18:17:03.910Z,15.32
2022-12-18T18:19:32.169Z,14.45
2022-12-18T18:21:59.856Z,14.25
2022-12-18T18:24:27.539Z,13.35
2022-12-18T18:26:59.700Z,14.02
2022-12-18T18:29:30.581Z,14.57
2022-12-18T18:31:58.462Z,12.43
2022-12-18T18:34:27.903Z,15.52
2022-12-18T18:36:55.187Z,13.40
2022-12-18T18:41:52.696Z,11.63
2022-12-18T18:44:21.582Z,10.30
2022-12-18T18:46:57.381Z,14.48
2022-12-18T18:49:28.027Z,14.43
2022-12-18T18:51:56.990Z,12.93
2022-12-18T18:54:25.372Z,15.80
2022-12-18T18:59:39.450Z,13.82
2022-12-18T19:02:07.111Z,17.75
2022-12-18T19:04:34.737Z,12.85
2022-12-18T19:07:01.884Z,16.05
2022-12-18T19:09:29.574Z,14.50
2022-12-18T19:12:15.730Z,17.83
2022-12-18T19:14:46.005Z,17.17
2022-12-18T19:17:13.043Z,14.43
2022-12-18T19:19:40.331Z,18.50
2022-12-18T19:22:07.422Z,14.05
2022-12-18T19:24:34.384Z,14.27
2022-12-18T19:27:01.676Z,18.02
2022-12-18T19:29:28.773Z,14.88
2022-12-18T19:31:55.794Z,13.88
2022-12-18T19:34:22.810Z,16.65
2022-12-18T19:36:52.098Z,19.42
2022-12-18T19:39:23.900Z,12.27
2022-12-18T19:41:52.696Z,19.60
2022-12-18T19:44:19.835Z,20.05
2022-12-18T19:46:51.587Z,20.00
2022-12-18T19:49:21.437Z,17.83
2022-12-18T19:51:49.905Z,17.77
2022-12-18T19:54:18.015Z,19.77
2022-12-18T19:56:46.218Z,17.13
2022-12-18T19:59:13.789Z,16.35
2022-12-18T20:01:41.324Z,18.20
2022-12-18T20:04:09.066Z,19.48
2022-12-18T20:06:50.131Z,18.27
2022-12-18T20:09:18.097Z,17.92
2022-12-18T20:11:46.199Z,21.00
2022-12-18T20:14:18.484Z,20.63
2022-12-18T20:16:51.224Z,18.35
2022-12-18T20:19:19.412Z,17.33
2022-12-18T20:21:47.340Z,18.55
2022-12-18T20:24:14.487Z,18.40
2022-12-18T20:26:41.578Z,21.00
2022-12-18T20:29:08.571Z,19.60
2022-12-18T20:31:35.528Z,29.73
2022-12-18T20:34:02.792Z,24.48
2022-12-18T20:36:33.045Z,21.33
2022-12-18T20:39:04.051Z,23.38
2022-12-18T20:41:38.076Z,25.00
2022-12-18T20:44:21.919Z,23.77
2022-12-18T20:46:52.944Z,27.98
2022-12-18T20:49:20.152Z,21.55
2022-12-18T20:51:50.465Z,26.33
2022-12-18T20:54:21.245Z,20.95
2022-12-18T20:56:48.293Z,25.25
2022-12-18T20:59:15.292Z,28.13
2022-12-18T21:01:48.406Z,31.02
2022-12-18T21:04:18.630Z,24.65
2022-12-18T21:06:53.070Z,28.65
2022-12-18T21:09:23.148Z,21.80
2022-12-18T21:12:10.397Z,32.63
2022-12-18T21:14:41.115Z,27.75
2022-12-18T21:17:08.147Z,23.02
2022-12-18T21:19:35.377Z,30.77
2022-12-18T21:22:03.578Z,32.88
2022-12-18T21:24:32.577Z,27.05
2022-12-18T21:27:00.060Z,28.98
2022-12-18T21:29:27.161Z,17.85
2022-12-18T21:31:54.991Z,25.85
2022-12-18T21:34:27.797Z,27.00
2022-12-18T21:36:56.558Z,25.60
2022-12-18T21:39:25.002Z,32.97
2022-12-18T21:42:11.417Z,29.42
2022-12-18T21:44:42.302Z,31.77
2022-12-18T21:47:21.528Z,26.30
2022-12-18T21:49:54.546Z,23.05
2022-12-18T21:52:25.713Z,25.60
2022-12-18T21:55:09.633Z,33.42
2022-12-18T21:57:38.491Z,31.13
2022-12-18T22:00:07.509Z,30.70
2022-12-18T22:02:40.837Z,17.13
2022-12-18T22:05:08.455Z,10.88
2022-12-18T22:07:36.078Z,25.35
2022-12-18T22:10:03.105Z,30.52
2022-12-18T22:12:43.305Z,32.70
2022-12-18T22:15:21.093Z,34.97
2022-12-18T22:17:55.518Z,32.30
2022-12-18T22:20:29.697Z,31.48
2022-12-18T22:22:57.270Z,38.05
2022-12-18T22:25:24.396Z,21.30
2022-12-18T22:28:10.028Z,29.33
2022-12-18T22:30:36.954Z,26.98
2022-12-18T22:33:04.121Z,29.10
2022-12-18T22:35:31.162Z,26.63
2022-12-18T22:38:01.883Z,31.50
2022-12-18T22:40:29.742Z,24.58
2022-12-18T22:42:57.047Z,20.35
2022-12-18T22:45:25.940Z,23.27
2022-12-18T22:47:53.132Z,23.63
2022-12-18T22:50:21.057Z,20.50
2022-12-18T22:52:48.037Z,21.65
2022-12-18T22:55:15.434Z,19.90
2022-12-18T22:57:45.039Z,15.43
2022-12-18T23:00:24.174Z,28.48
2022-12-18T23:02:59.273Z,18.55
2022-12-18T23:05:27.880Z,14.70
2022-12-18T23:07:54.850Z,17.38
2022-12-18T23:10:21.939Z,17.00
2022-12-18T23:12:48.904Z,18.00
2022-12-18T23:15:16.261Z,17.38
2022-12-18T23:17:45.822Z,17.67
2022-12-18T23:20:12.862Z,19.88
2022-12-18T23:22:39.766Z,15.23
2022-12-18T23:25:10.270Z,21.73
2022-12-18T23:27:37.245Z,20.95
2022-12-18T23:30:05.034Z,14.85
2022-12-18T23:32:31.961Z,17.50
2022-12-18T23:35:03.775Z,18.00
2022-12-18T23:37:57.666Z,17.38
2022-12-18T23:40:19.115Z,19.45
2022-12-18T23:42:46.108Z,16.50
2022-12-18T23:45:17.526Z,11.32
2022-12-18T23:47:45.523Z,19.40
2022-12-18T23:50:14.953Z,4.63
2022-12-18T23:52:42.270Z,14.48
2022-12-18T23:55:09.358Z,11.90
2022-12-18T23:57:36.489Z,18.48
